Time;durP1;ratioP1;P1;durP2;ratioP2;P2;SDS_P1;SDS_P2;PMS_P1;PMS_P2;Temp;Humidity;BMP_temperature;BMP_pressure;BME280_temperature;BME280_humidity;BME280_pressure;Samples;Min_cycle;Max_cycle;Signal;HPM_P1;HPM_P2
2023/01/06 00:00:14;;;;;;;9.05;3.30;;;12.50;99.90;;;;;;5004284;28;20044;-76
2023/01/06 00:02:40;;;;;;;6.20;2.90;;;12.50;99.90;;;;;;5000882;28;20242;-75
2023/01/06 00:05:06;;;;;;;8.70;2.80;;;12.50;99.90;;;;;;5003993;28;20022;-75
2023/01/06 00:07:32;;;;;;;8.48;2.85;;;12.50;99.90;;;;;;5005369;28;20030;-75
2023/01/06 00:09:57;;;;;;;8.02;2.92;;;12.50;99.90;;;;;;4990720;28;20034;-75
2023/01/06 00:12:25;;;;;;;3.78;2.38;;;12.50;99.90;;;;;;5007958;28;20026;-75
2023/01/06 00:14:51;;;;;;;3.88;2.53;;;12.50;99.90;;;;;;5008089;28;20088;-75
2023/01/06 00:17:17;;;;;;;3.95;2.55;;;12.50;99.90;;;;;;5008021;28;20021;-75
2023/01/06 00:19:42;;;;;;;7.68;2.50;;;12.50;99.90;;;;;;4988542;28;20033;-75
2023/01/06 00:22:08;;;;;;;8.23;2.55;;;12.50;99.90;;;;;;5009163;28;20018;-75
2023/01/06 00:24:34;;;;;;;6.20;3.00;;;12.50;99.90;;;;;;5002641;28;20436;-75
2023/01/06 00:27:00;;;;;;;5.03;2.70;;;12.60;99.90;;;;;;4997340;28;20402;-75
2023/01/06 00:29:26;;;;;;;6.57;2.60;;;12.60;99.90;;;;;;5005270;28;20022;-75
2023/01/06 00:31:52;;;;;;;7.40;2.63;;;12.50;99.90;;;;;;5004462;28;20018;-76
2023/01/06 00:34:18;;;;;;;7.15;2.95;;;12.50;99.90;;;;;;5002907;28;20046;-75
2023/01/06 00:36:44;;;;;;;5.93;2.53;;;12.30;99.90;;;;;;5009872;28;20053;-75
2023/01/06 00:39:12;;;;;;;4.32;2.17;;;12.40;99.90;;;;;;5002699;28;20030;-75
2023/01/06 00:44:23;;;;;;;4.40;2.47;;;12.40;99.90;;;;;;5001405;28;20405;-75
2023/01/06 00:46:49;;;;;;;8.18;2.83;;;12.40;99.90;;;;;;4998274;28;20055;-75
2023/01/06 00:49:16;;;;;;;4.95;2.30;;;12.30;99.90;;;;;;5002462;28;20485;-76
2023/01/06 00:51:42;;;;;;;4.32;2.03;;;12.40;99.90;;;;;;5000921;28;20073;-75
2023/01/06 00:54:10;;;;;;;7.40;2.50;;;12.40;99.90;;;;;;5001182;28;20026;-76
2023/01/06 00:56:48;;;;;;;6.00;2.13;;;12.30;99.90;;;;;;5004994;28;20030;-75
2023/01/06 00:59:16;;;;;;;5.00;1.92;;;12.40;99.90;;;;;;5009746;28;20485;-75
2023/01/06 01:01:43;;;;;;;5.50;2.40;;;12.40;99.90;;;;;;5000837;28;20022;-75
2023/01/06 01:04:09;;;;;;;6.55;2.10;;;12.30;99.90;;;;;;4997397;28;20126;-75
2023/01/06 01:06:36;;;;;;;7.28;2.08;;;12.30;99.90;;;;;;5007499;28;20037;-75
2023/01/06 01:09:03;;;;;;;7.18;2.35;;;12.40;99.90;;;;;;4998698;28;20026;-76
2023/01/06 01:14:16;;;;;;;6.20;1.92;;;12.40;99.90;;;;;;4995943;28;20108;-76
2023/01/06 01:16:42;;;;;;;6.35;1.73;;;12.40;99.90;;;;;;5003775;28;20049;-76
2023/01/06 01:19:08;;;;;;;4.43;2.20;;;12.30;99.90;;;;;;5007776;28;20073;-76
2023/01/06 01:21:34;;;;;;;4.55;1.60;;;12.30;99.90;;;;;;5004459;28;20058;-76
2023/01/06 01:23:59;;;;;;;5.03;2.00;;;12.30;99.90;;;;;;4996374;28;20054;-76
2023/01/06 01:26:25;;;;;;;6.22;1.52;;;12.30;99.90;;;;;;5003537;28;20041;-76
2023/01/06 01:28:51;;;;;;;5.03;1.77;;;12.30;99.90;;;;;;5000305;28;20088;-75
2023/01/06 01:31:16;;;;;;;8.57;1.90;;;12.30;99.90;;;;;;5004255;28;20549;-75
2023/01/06 01:33:42;;;;;;;4.63;1.52;;;12.20;99.90;;;;;;5010124;28;20033;-75
2023/01/06 01:36:11;;;;;;;9.00;2.28;;;12.30;99.90;;;;;;5003503;28;20030;-75
2023/01/06 01:38:36;;;;;;;4.93;1.75;;;12.20;99.90;;;;;;5009328;28;20021;-76
2023/01/06 01:41:02;;;;;;;3.97;1.83;;;12.30;99.90;;;;;;5000643;28;20105;-76
2023/01/06 01:43:50;;;;;;;7.55;2.10;;;12.30;99.90;;;;;;5006393;28;20032;-75
2023/01/06 01:46:25;;;;;;;3.88;1.63;;;12.30;99.90;;;;;;4979115;28;20132;-76
2023/01/06 01:48:53;;;;;;;8.57;2.10;;;12.30;99.90;;;;;;5009512;28;20440;-75
2023/01/06 01:51:25;;;;;;;8.30;2.35;;;12.30;99.90;;;;;;5007215;28;20026;-76
2023/01/06 01:53:54;;;;;;;5.90;1.92;;;12.20;99.90;;;;;;5007460;28;20033;-76
2023/01/06 01:56:27;;;;;;;5.65;1.88;;;12.30;99.90;;;;;;4996996;28;20025;-77
2023/01/06 01:59:13;;;;;;;9.80;2.10;;;12.20;99.90;;;;;;5007980;28;20022;-76
2023/01/06 02:01:38;;;;;;;4.45;1.95;;;12.20;99.90;;;;;;4998274;28;20080;-76
2023/01/06 02:04:05;;;;;;;13.63;2.05;;;12.20;99.90;;;;;;5001743;28;20030;-76
2023/01/06 02:06:31;;;;;;;9.38;1.58;;;12.20;99.90;;;;;;4999200;28;20065;-76
2023/01/06 02:09:09;;;;;;;6.65;1.85;;;12.20;99.90;;;;;;5002481;28;20516;-76
2023/01/06 02:11:37;;;;;;;7.70;2.53;;;12.20;99.90;;;;;;4998775;28;20104;-76
2023/01/06 02:14:14;;;;;;;7.13;1.65;;;12.10;99.90;;;;;;5001865;28;20052;-77
2023/01/06 02:17:03;;;;;;;7.60;1.75;;;12.20;99.90;;;;;;5003705;28;20104;-76
2023/01/06 02:19:48;;;;;;;5.15;1.63;;;12.20;99.90;;;;;;4988671;28;20464;-77
2023/01/06 02:22:51;;;;;;;8.48;1.63;;;12.10;99.90;;;;;;5004945;28;20437;-76
2023/01/06 02:25:26;;;;;;;;;;;12.10;99.90;;;;;;5000198;28;20030;-76
2023/01/06 02:28:16;;;;;;;5.60;1.30;;;12.20;99.90;;;;;;4988399;28;19968;-77
2023/01/06 02:31:19;;;;;;;5.88;1.52;;;12.20;99.90;;;;;;4990927;28;20033;-76
2023/01/06 02:33:54;;;;;;;7.47;1.40;;;12.20;99.90;;;;;;5001452;28;20075;-77
2023/01/06 02:36:25;;;;;;;3.50;1.30;;;12.20;99.90;;;;;;5008907;28;20022;-76
2023/01/06 02:39:06;;;;;;;4.20;1.48;;;12.20;99.90;;;;;;5006526;28;20026;-76
2023/01/06 02:41:51;;;;;;;3.13;1.20;;;12.30;99.90;;;;;;5004242;28;20037;-76
2023/01/06 02:44:26;;;;;;;5.10;1.30;;;12.20;99.90;;;;;;5009080;28;20029;-76
2023/01/06 02:47:03;;;;;;;7.85;1.67;;;12.20;99.90;;;;;;5008582;28;20046;-76
2023/01/06 02:49:43;;;;;;;5.13;1.65;;;12.20;99.90;;;;;;5009689;28;20531;-76
2023/01/06 02:52:15;;;;;;;5.20;1.35;;;12.20;99.90;;;;;;4986235;28;20125;-76
2023/01/06 02:54:55;;;;;;;6.90;1.60;;;12.30;99.90;;;;;;5006890;28;20080;-76
2023/01/06 02:57:42;;;;;;;4.35;1.35;;;12.20;99.90;;;;;;4985290;28;20041;-76
2023/01/06 03:00:23;;;;;;;3.25;1.35;;;12.20;99.90;;;;;;4995025;28;20100;-76
2023/01/06 03:02:58;;;;;;;2.95;1.42;;;12.20;99.90;;;;;;5010984;28;20030;-76
2023/01/06 03:05:25;;;;;;;4.70;1.30;;;12.20;99.90;;;;;;5004665;28;20493;-76
2023/01/06 03:07:52;;;;;;;5.78;1.20;;;12.20;99.90;;;;;;4986221;28;20026;-76
2023/01/06 03:10:21;;;;;;;7.45;1.35;;;12.20;99.90;;;;;;5006592;28;20101;-77
2023/01/06 03:12:51;;;;;;;4.03;1.52;;;12.20;99.90;;;;;;5008372;28;20039;-76
2023/01/06 03:15:18;;;;;;;6.70;1.50;;;12.20;99.90;;;;;;5002886;28;20038;-76
2023/01/06 03:17:44;;;;;;;5.75;1.63;;;12.20;99.90;;;;;;5010911;28;20022;-76
2023/01/06 03:20:11;;;;;;;5.13;1.80;;;12.20;99.90;;;;;;5012589;28;20018;-76
2023/01/06 03:22:38;;;;;;;3.80;1.58;;;12.20;99.90;;;;;;5007724;28;20105;-76
2023/01/06 03:25:06;;;;;;;5.45;1.13;;;12.20;99.90;;;;;;5009603;28;20025;-76
2023/01/06 03:27:32;;;;;;;7.18;1.40;;;12.20;99.90;;;;;;5005202;28;20034;-77
2023/01/06 03:29:58;;;;;;;4.25;1.42;;;12.20;99.90;;;;;;5004091;28;20026;-76
2023/01/06 03:32:57;;;;;;;6.00;1.40;;;12.20;99.90;;;;;;5008795;28;20034;-76
2023/01/06 03:36:02;;;;;;;3.78;1.20;;;12.20;99.90;;;;;;5005760;28;20026;-76
2023/01/06 03:38:49;;;;;;;6.32;1.02;;;12.20;99.90;;;;;;5012839;28;20143;-76
2023/01/06 03:43:10;;;;;;;5.47;1.48;;;12.20;99.90;;;;;;5006918;28;20033;-76
2023/01/06 03:44:18;;;;;;;4.93;1.20;;;12.20;99.90;;;;;;5005478;28;20046;-76
2023/01/06 03:46:52;;;;;;;4.95;1.42;;;12.30;99.90;;;;;;4999110;28;20581;-76
2023/01/06 03:49:21;;;;;;;1.85;0.93;;;12.20;99.90;;;;;;4989619;28;20042;-76
2023/01/06 03:51:55;;;;;;;5.95;1.20;;;12.30;99.90;;;;;;5001036;28;20431;-75
2023/01/06 03:54:39;;;;;;;7.63;2.17;;;12.20;99.90;;;;;;5003692;28;20026;-76
2023/01/06 03:57:17;;;;;;;3.30;1.23;;;12.10;99.90;;;;;;4985566;28;20026;-75
2023/01/06 03:59:49;;;;;;;4.93;1.17;;;12.20;99.90;;;;;;4995395;28;20018;-76
2023/01/06 04:02:18;;;;;;;3.90;1.33;;;12.10;99.90;;;;;;5003357;28;20026;-76
2023/01/06 04:04:44;;;;;;;4.55;1.20;;;12.10;99.90;;;;;;5008062;28;20430;-75
2023/01/06 04:07:09;;;;;;;3.90;1.30;;;12.10;99.90;;;;;;5009036;28;20081;-76
2023/01/06 04:09:35;;;;;;;4.05;1.67;;;12.20;99.90;;;;;;5005338;28;20393;-75
2023/01/06 04:14:44;;;;;;;3.50;1.17;;;12.10;99.90;;;;;;5001958;28;20617;-75
2023/01/06 04:17:10;;;;;;;2.47;1.20;;;12.10;99.90;;;;;;5002579;28;20026;-75
2023/01/06 04:19:36;;;;;;;6.90;1.65;;;12.10;99.90;;;;;;5011003;28;20033;-75
2023/01/06 04:22:01;;;;;;;2.10;1.17;;;12.20;99.90;;;;;;5008041;28;20470;-75
2023/01/06 04:24:28;;;;;;;3.42;1.30;;;12.20;99.90;;;;;;5008272;28;20401;-76
2023/01/06 04:26:54;;;;;;;4.75;1.20;;;12.20;99.90;;;;;;5000236;28;20041;-76
2023/01/06 04:29:20;;;;;;;3.47;1.10;;;12.10;99.90;;;;;;4998591;28;20029;-75
2023/01/06 04:31:45;;;;;;;3.10;1.65;;;12.00;99.90;;;;;;5003948;28;20049;-75
2023/01/06 04:34:11;;;;;;;4.32;1.33;;;12.10;99.90;;;;;;5009761;28;20053;-75
2023/01/06 04:36:37;;;;;;;3.65;1.30;;;12.10;99.90;;;;;;4994327;28;20084;-75
2023/01/06 04:39:02;;;;;;;1.50;0.90;;;12.10;99.90;;;;;;5006450;28;20057;-75
2023/01/06 04:41:28;;;;;;;3.72;1.23;;;12.10;99.90;;;;;;5007672;28;20076;-76
2023/01/06 04:43:54;;;;;;;5.57;1.48;;;12.10;99.90;;;;;;4999544;28;20125;-76
2023/01/06 04:46:19;;;;;;;2.55;1.27;;;12.20;99.90;;;;;;5003358;28;20061;-76
2023/01/06 04:48:45;;;;;;;3.42;1.50;;;12.20;99.90;;;;;;5005695;28;20030;-76
2023/01/06 04:51:11;;;;;;;4.13;1.33;;;12.20;99.90;;;;;;4999966;28;20076;-76
2023/01/06 04:53:38;;;;;;;3.35;1.60;;;12.20;99.90;;;;;;4989796;28;20054;-76
2023/01/06 04:56:07;;;;;;;3.10;1.10;;;12.10;99.90;;;;;;5000357;28;20101;-76
2023/01/06 04:58:33;;;;;;;6.38;1.30;;;12.10;99.90;;;;;;5027678;28;20117;-76
2023/01/06 05:01:01;;;;;;;2.35;1.10;;;12.20;99.90;;;;;;4987933;28;20018;-76
2023/01/06 05:03:26;;;;;;;10.63;1.55;;;12.20;99.90;;;;;;5000711;28;20434;-76
2023/01/06 05:05:52;;;;;;;3.45;1.10;;;12.20;99.90;;;;;;4997216;28;20081;-75
2023/01/06 05:08:17;;;;;;;4.50;1.70;;;12.10;99.90;;;;;;4991121;28;20050;-76
2023/01/06 05:10:43;;;;;;;4.00;1.30;;;12.10;99.90;;;;;;4999048;28;20088;-75
2023/01/06 05:13:09;;;;;;;5.65;1.73;;;12.10;99.90;;;;;;5009571;28;20018;-75
2023/01/06 05:15:35;;;;;;;4.28;1.17;;;12.10;99.90;;;;;;5007936;28;20026;-76
2023/01/06 05:18:00;;;;;;;4.20;1.50;;;12.10;99.90;;;;;;5001272;28;20088;-75
2023/01/06 05:20:26;;;;;;;2.35;0.77;;;12.10;99.90;;;;;;5000293;28;20026;-75
2023/01/06 05:22:52;;;;;;;3.72;1.33;;;12.20;99.90;;;;;;5002584;28;20033;-75
2023/01/06 05:25:17;;;;;;;4.97;1.80;;;12.10;99.90;;;;;;5007379;28;20151;-75
2023/01/06 05:27:43;;;;;;;6.40;1.58;;;12.00;99.90;;;;;;5002759;28;20116;-76
2023/01/06 05:30:09;;;;;;;3.03;1.65;;;12.10;99.90;;;;;;5003073;28;20414;-75
2023/01/06 05:32:34;;;;;;;3.30;1.48;;;12.00;99.90;;;;;;5002989;28;20025;-76
2023/01/06 05:35:00;;;;;;;6.40;1.67;;;12.00;99.90;;;;;;5000947;28;20072;-76
2023/01/06 05:37:26;;;;;;;4.07;1.60;;;12.00;99.90;;;;;;5003461;28;20636;-75
2023/01/06 05:39:51;;;;;;;1.95;1.55;;;12.00;99.90;;;;;;5000828;28;20029;-75
2023/01/06 05:42:17;;;;;;;3.45;1.50;;;12.00;99.90;;;;;;4985778;28;20176;-75
2023/01/06 05:44:43;;;;;;;5.32;1.92;;;12.00;99.90;;;;;;5011618;28;20042;-75
2023/01/06 05:47:09;;;;;;;3.80;1.60;;;12.00;99.90;;;;;;5000982;28;20054;-75
2023/01/06 05:49:34;;;;;;;4.75;1.58;;;12.00;99.90;;;;;;5007194;28;20037;-75
2023/01/06 05:52:00;;;;;;;2.05;1.70;;;12.00;99.90;;;;;;4997202;28;20510;-75
2023/01/06 05:54:25;;;;;;;1.33;1.20;;;12.00;99.90;;;;;;4998656;28;20389;-75
2023/01/06 05:56:51;;;;;;;5.63;1.92;;;11.90;99.90;;;;;;5003409;28;20470;-75
2023/01/06 05:59:17;;;;;;;4.35;1.85;;;11.90;99.90;;;;;;5001839;28;20038;-75
2023/01/06 06:01:42;;;;;;;3.42;1.45;;;12.00;99.90;;;;;;4997950;28;20029;-75
2023/01/06 06:04:11;;;;;;;3.45;1.65;;;11.90;99.90;;;;;;5002116;28;20085;-76
2023/01/06 06:06:37;;;;;;;2.22;1.27;;;12.00;99.90;;;;;;5007221;28;20030;-75
2023/01/06 06:09:04;;;;;;;5.68;1.90;;;11.90;99.90;;;;;;5011491;28;20088;-75
2023/01/06 06:11:30;;;;;;;3.90;1.85;;;12.00;99.90;;;;;;5007009;28;20033;-75
2023/01/06 06:13:56;;;;;;;5.57;1.38;;;12.00;99.90;;;;;;5009260;28;20030;-76
2023/01/06 06:16:24;;;;;;;4.53;1.38;;;12.00;99.90;;;;;;5010637;28;20025;-75
2023/01/06 06:18:51;;;;;;;4.20;1.63;;;12.00;99.90;;;;;;5008011;28;20069;-75
2023/01/06 06:21:21;;;;;;;1.52;1.20;;;12.00;99.90;;;;;;5016783;28;20029;-75
2023/01/06 06:23:48;;;;;;;4.57;1.30;;;12.00;99.90;;;;;;5011125;28;20025;-75
2023/01/06 06:26:14;;;;;;;2.25;1.40;;;12.00;99.90;;;;;;5009812;28;20037;-75
2023/01/06 06:28:40;;;;;;;2.55;1.60;;;12.00;99.90;;;;;;5006161;28;20160;-75
2023/01/06 06:31:08;;;;;;;2.40;1.65;;;12.00;99.90;;;;;;5000675;28;20084;-75
2023/01/06 06:33:34;;;;;;;2.58;1.70;;;12.00;99.90;;;;;;5005410;28;20030;-75
2023/01/06 06:36:00;;;;;;;2.05;1.67;;;11.90;99.90;;;;;;4995589;28;20168;-75
2023/01/06 06:38:27;;;;;;;2.92;1.45;;;12.00;99.90;;;;;;4986318;28;20437;-75
2023/01/06 06:40:52;;;;;;;2.72;1.42;;;11.90;99.90;;;;;;5009584;28;20030;-75
2023/01/06 06:43:18;;;;;;;8.63;1.60;;;12.00;99.90;;;;;;5010811;28;20388;-75
2023/01/06 06:45:45;;;;;;;3.65;1.38;;;12.00;99.90;;;;;;5011001;28;20386;-75
2023/01/06 06:48:11;;;;;;;3.10;1.77;;;12.00;99.90;;;;;;5005110;28;20058;-75
2023/01/06 06:50:36;;;;;;;1.83;1.38;;;12.00;99.90;;;;;;4999631;28;20528;-75
2023/01/06 06:53:02;;;;;;;3.83;1.70;;;12.00;99.90;;;;;;5011701;28;20034;-75
2023/01/06 06:55:28;;;;;;;1.70;1.02;;;12.00;99.90;;;;;;4995258;28;20015;-75
2023/01/06 06:57:53;;;;;;;3.80;1.63;;;12.00;99.90;;;;;;5010587;28;20108;-74
2023/01/06 07:00:19;;;;;;;3.72;1.60;;;12.00;99.90;;;;;;5004423;28;20461;-75
2023/01/06 07:02:48;;;;;;;2.92;1.67;;;12.00;99.90;;;;;;5011497;28;20088;-75
2023/01/06 07:05:15;;;;;;;2.78;1.45;;;12.00;99.90;;;;;;5025453;28;20023;-75
2023/01/06 07:07:41;;;;;;;7.90;1.58;;;12.00;99.90;;;;;;5008023;28;20026;-76
2023/01/06 07:10:07;;;;;;;3.75;1.70;;;12.00;99.90;;;;;;5009598;28;20517;-75
2023/01/06 07:12:33;;;;;;;5.20;1.50;;;12.00;99.90;;;;;;5027403;28;20444;-75
2023/01/06 07:14:58;;;;;;;3.80;1.40;;;12.00;99.90;;;;;;5001352;28;20110;-75
2023/01/06 07:17:27;;;;;;;4.65;1.60;;;12.10;99.90;;;;;;5011354;28;20030;-75
2023/01/06 07:19:53;;;;;;;2.72;1.50;;;12.00;99.90;;;;;;5007435;28;20475;-75
2023/01/06 07:22:19;;;;;;;2.50;1.75;;;12.00;99.90;;;;;;5004377;28;20084;-75
2023/01/06 07:24:44;;;;;;;6.28;1.73;;;12.00;99.90;;;;;;5001802;28;20437;-75
2023/01/06 07:27:10;;;;;;;2.13;1.67;;;12.00;99.90;;;;;;4989333;28;20033;-75
2023/01/06 07:29:36;;;;;;;3.25;1.45;;;12.00;99.90;;;;;;5014490;28;20026;-75
2023/01/06 07:32:01;;;;;;;4.93;2.08;;;12.00;99.90;;;;;;5005438;28;20038;-76
2023/01/06 07:34:27;;;;;;;2.03;1.75;;;12.10;99.90;;;;;;5007825;28;20077;-75
2023/01/06 07:36:52;;;;;;;3.42;2.00;;;12.00;99.90;;;;;;4986697;28;20042;-75
2023/01/06 07:39:18;;;;;;;1.90;1.70;;;12.10;99.90;;;;;;5006362;28;20042;-75
2023/01/06 07:41:44;;;;;;;4.40;1.90;;;12.00;99.90;;;;;;5003031;28;20021;-75
2023/01/06 07:44:09;;;;;;;2.35;1.48;;;12.00;99.90;;;;;;5007449;28;20042;-76
2023/01/06 07:46:35;;;;;;;8.15;2.63;;;12.00;99.90;;;;;;5004655;28;20046;-75
2023/01/06 07:49:00;;;;;;;3.97;1.85;;;12.00;99.90;;;;;;4981068;28;20199;-76
2023/01/06 07:51:26;;;;;;;2.97;1.80;;;12.00;99.90;;;;;;5007301;28;20148;-73
2023/01/06 07:53:52;;;;;;;4.95;2.10;;;12.00;99.90;;;;;;5008261;28;20081;-74
2023/01/06 07:56:18;;;;;;;4.28;1.90;;;12.00;99.90;;;;;;5011065;28;20040;-73
2023/01/06 07:58:43;;;;;;;4.63;2.47;;;12.00;99.90;;;;;;4993287;28;20022;-73
2023/01/06 08:01:10;;;;;;;2.63;1.92;;;12.00;99.90;;;;;;5002022;28;20537;-73
2023/01/06 08:03:35;;;;;;;5.63;2.10;;;12.00;99.90;;;;;;5002066;28;20050;-73
2023/01/06 08:06:07;;;;;;;7.03;2.78;;;12.10;99.90;;;;;;5006980;28;20470;-73
2023/01/06 08:08:38;;;;;;;8.77;2.40;;;12.00;99.90;;;;;;5011978;28;20482;-73
2023/01/06 08:11:04;;;;;;;2.50;1.90;;;12.10;99.90;;;;;;5004446;28;20057;-73
2023/01/06 08:13:30;;;;;;;4.28;2.22;;;12.10;99.90;;;;;;5004618;28;20022;-73
2023/01/06 08:15:56;;;;;;;5.30;2.03;;;12.10;99.90;;;;;;5003863;28;20030;-73
2023/01/06 08:18:22;;;;;;;2.58;2.25;;;12.10;99.90;;;;;;5009427;28;20021;-72
2023/01/06 08:20:47;;;;;;;2.22;1.80;;;12.10;99.90;;;;;;5009763;28;20091;-73
2023/01/06 08:23:13;;;;;;;4.93;1.80;;;12.00;99.90;;;;;;4999298;28;20529;-73
2023/01/06 08:25:38;;;;;;;3.45;2.15;;;12.00;99.90;;;;;;5003653;28;20030;-72
2023/01/06 08:28:04;;;;;;;4.13;2.03;;;12.00;99.90;;;;;;4994827;28;20033;-73
2023/01/06 08:30:30;;;;;;;2.72;2.03;;;12.00;99.90;;;;;;5000249;28;20053;-73
2023/01/06 08:32:57;;;;;;;4.45;2.30;;;12.00;99.90;;;;;;5006757;28;20033;-73
2023/01/06 08:35:22;;;;;;;4.43;2.65;;;11.90;99.90;;;;;;5009615;28;20049;-73
2023/01/06 08:37:48;;;;;;;4.70;2.20;;;11.90;99.90;;;;;;4986814;28;20050;-73
2023/01/06 08:40:14;;;;;;;5.20;2.35;;;12.00;99.90;;;;;;5008629;28;20053;-75
2023/01/06 08:42:39;;;;;;;3.92;2.40;;;12.00;99.90;;;;;;5007642;28;20104;-74
2023/01/06 08:45:06;;;;;;;7.60;2.58;;;11.90;99.90;;;;;;5005598;28;20496;-73
2023/01/06 08:47:32;;;;;;;2.63;2.38;;;12.00;99.90;;;;;;5011167;28;20061;-73
2023/01/06 08:49:58;;;;;;;3.08;2.80;;;11.90;99.90;;;;;;5005425;28;20022;-73
2023/01/06 08:52:23;;;;;;;4.70;2.60;;;12.00;99.90;;;;;;5000367;28;20030;-72
2023/01/06 08:54:49;;;;;;;2.80;2.40;;;12.00;99.90;;;;;;5004486;28;20069;-72
2023/01/06 08:57:15;;;;;;;3.10;2.75;;;12.00;99.90;;;;;;5008701;28;20097;-73
2023/01/06 08:59:41;;;;;;;3.63;2.60;;;12.00;99.90;;;;;;5010985;28;20046;-74
2023/01/06 09:02:11;;;;;;;5.90;2.20;;;12.10;99.90;;;;;;5007482;28;20382;-75
2023/01/06 09:04:37;;;;;;;2.80;2.60;;;12.10;99.90;;;;;;5005589;28;20100;-74
2023/01/06 09:07:03;;;;;;;4.63;3.58;;;12.10;99.90;;;;;;5007692;28;20044;-74
2023/01/06 09:09:28;;;;;;;4.40;3.25;;;12.10;99.90;;;;;;5001596;28;20022;-75
2023/01/06 09:11:54;;;;;;;3.60;3.25;;;12.10;99.90;;;;;;5007533;28;20486;-75
2023/01/06 09:14:20;;;;;;;4.85;3.38;;;12.20;99.90;;;;;;5010266;28;20026;-75
2023/01/06 09:16:47;;;;;;;3.55;2.80;;;12.30;99.90;;;;;;4998891;28;20104;-75
2023/01/06 09:19:15;;;;;;;5.47;3.00;;;12.30;99.90;;;;;;5000446;28;20023;-75
2023/01/06 09:21:41;;;;;;;3.33;1.92;;;12.30;99.90;;;;;;4999673;28;20078;-76
2023/01/06 09:24:12;;;;;;;5.35;2.70;;;12.20;99.90;;;;;;5009849;28;20029;-76
2023/01/06 09:26:37;;;;;;;2.80;1.85;;;12.20;99.90;;;;;;5010872;28;20084;-76
2023/01/06 09:29:03;;;;;;;5.53;2.15;;;12.30;99.90;;;;;;5004247;28;20479;-76
2023/01/06 09:31:29;;;;;;;4.68;2.28;;;12.30;99.90;;;;;;5006861;28;20018;-76
2023/01/06 09:33:54;;;;;;;3.75;2.53;;;12.30;99.90;;;;;;5012024;28;20025;-76
2023/01/06 09:36:20;;;;;;;4.97;2.25;;;12.30;99.90;;;;;;5010403;28;20033;-75
2023/01/06 09:38:46;;;;;;;2.53;2.00;;;12.40;99.90;;;;;;5007621;28;20030;-75
2023/01/06 09:41:43;;;;;;;2.22;1.80;;;12.40;99.90;;;;;;5009851;28;20055;-75
2023/01/06 09:44:09;;;;;;;2.33;1.90;;;12.40;99.90;;;;;;5004750;28;20034;-75
2023/01/06 09:46:38;;;;;;;2.17;1.73;;;12.40;99.90;;;;;;5008334;28;20045;-75
2023/01/06 09:49:14;;;;;;;3.42;1.90;;;12.50;99.90;;;;;;5007046;28;20545;-75
2023/01/06 09:51:40;;;;;;;2.05;1.83;;;12.50;99.90;;;;;;5001745;28;20153;-75
2023/01/06 09:54:20;;;;;;;5.18;2.20;;;12.50;99.90;;;;;;4997152;28;20030;-75
2023/01/06 09:56:49;;;;;;;4.35;1.95;;;12.50;99.90;;;;;;5003562;28;20449;-75
2023/01/06 09:59:33;;;;;;;2.22;1.80;;;12.60;99.90;;;;;;5000039;28;20038;-74
2023/01/06 10:02:00;;;;;;;2.72;1.73;;;12.50;99.90;;;;;;5008130;28;20037;-72
2023/01/06 10:04:28;;;;;;;3.95;2.08;;;12.60;99.90;;;;;;5005875;28;20018;-72
2023/01/06 10:07:27;;;;;;;2.65;2.17;;;12.70;99.90;;;;;;4996915;28;20136;-74
2023/01/06 10:10:32;;;;;;;3.78;2.00;;;12.60;99.90;;;;;;4988553;28;20045;-73
2023/01/06 10:13:00;;;;;;;3.67;2.25;;;12.60;99.90;;;;;;5003232;28;20034;-73
2023/01/06 10:15:42;;;;;;;5.63;2.00;;;12.70;99.90;;;;;;4998790;28;20068;-73
2023/01/06 10:18:31;;;;;;;4.05;2.28;;;12.80;99.90;;;;;;4996805;28;20493;-73
2023/01/06 10:21:17;;;;;;;8.35;2.13;;;12.70;99.90;;;;;;5002383;28;20058;-73
2023/01/06 10:24:04;;;;;;;2.28;1.60;;;12.70;99.90;;;;;;5003214;28;20030;-75
2023/01/06 10:26:35;;;;;;;5.55;1.60;;;12.70;99.90;;;;;;4982205;28;20038;-74
2023/01/06 10:29:08;;;;;;;3.50;1.48;;;12.70;99.90;;;;;;5008065;28;20014;-74
2023/01/06 10:31:37;;;;;;;1.65;1.25;;;12.70;99.90;;;;;;4999179;28;20049;-73
2023/01/06 10:34:09;;;;;;;2.35;1.73;;;12.70;99.90;;;;;;4999757;28;20478;-74
2023/01/06 10:36:43;;;;;;;3.55;1.52;;;12.70;99.90;;;;;;5005252;28;20488;-74
2023/01/06 10:39:15;;;;;;;5.97;2.35;;;12.70;99.90;;;;;;5002064;28;20094;-73
2023/01/06 10:44:49;;;;;;;4.22;1.52;;;12.80;99.90;;;;;;5002946;28;20080;-74
2023/01/06 10:47:24;;;;;;;4.18;1.55;;;12.90;99.90;;;;;;5000443;28;20073;-74
2023/01/06 10:49:50;;;;;;;2.38;1.70;;;12.90;99.90;;;;;;5004080;28;20023;-74
2023/01/06 10:52:16;;;;;;;3.75;1.77;;;13.00;99.90;;;;;;5008996;28;20034;-74
2023/01/06 10:54:43;;;;;;;1.95;1.75;;;13.00;99.90;;;;;;5001422;28;20053;-74
2023/01/06 10:57:16;;;;;;;4.10;1.40;;;13.00;99.90;;;;;;5001328;28;20029;-74
2023/01/06 11:00:14;;;;;;;3.80;1.55;;;13.00;99.90;;;;;;5005030;28;20109;-74
2023/01/06 11:02:45;;;;;;;2.58;1.80;;;13.00;99.90;;;;;;5000607;28;20436;-73
2023/01/06 11:05:19;;;;;;;3.25;1.55;;;12.90;99.90;;;;;;4987771;28;20026;-73
2023/01/06 11:08:07;;;;;;;5.25;1.80;;;12.90;99.90;;;;;;5010918;28;20033;-73
2023/01/06 11:10:40;;;;;;;23.60;10.40;;;12.90;99.90;;;;;;5007623;28;20018;-74
2023/01/06 11:13:22;;;;;;;11.02;5.25;;;12.90;99.90;;;;;;5006894;28;20026;-73
2023/01/06 11:15:48;;;;;;;5.70;2.80;;;13.10;99.90;;;;;;5000142;28;20430;-73
2023/01/06 11:18:29;;;;;;;4.55;1.80;;;13.10;99.90;;;;;;5005643;28;20441;-74
2023/01/06 11:21:21;;;;;;;5.68;2.45;;;13.10;99.90;;;;;;5001972;28;20030;-73
2023/01/06 11:23:47;;;;;;;5.05;2.28;;;13.10;99.90;;;;;;4999038;28;20073;-75
2023/01/06 11:26:15;;;;;;;2.70;1.50;;;13.30;99.90;;;;;;5004544;28;20025;-73
2023/01/06 11:28:42;;;;;;;2.97;1.23;;;13.20;99.90;;;;;;5004295;28;20030;-73
2023/01/06 11:31:18;;;;;;;3.67;1.58;;;13.30;99.90;;;;;;5011897;28;20061;-73
2023/01/06 11:33:50;;;;;;;5.75;2.00;;;13.30;99.90;;;;;;5008100;28;20110;-73
2023/01/06 11:36:18;;;;;;;6.72;2.65;;;13.20;99.90;;;;;;5002358;28;20037;-74
2023/01/06 11:38:56;;;;;;;3.45;1.92;;;13.10;99.90;;;;;;5005809;28;20029;-74
2023/01/06 11:41:31;;;;;;;3.83;1.73;;;13.30;99.90;;;;;;5004068;28;20038;-73
2023/01/06 11:44:26;;;;;;;6.28;1.70;;;13.20;99.90;;;;;;5010661;28;20036;-73
2023/01/06 11:47:01;;;;;;;5.00;2.83;;;13.20;99.90;;;;;;4995131;28;20043;-73
2023/01/06 11:49:33;;;;;;;10.10;4.15;;;13.20;99.90;;;;;;5008021;28;20053;-73
2023/01/06 11:52:24;;;;;;;5.35;2.13;;;13.30;99.90;;;;;;5010230;28;20069;-73
2023/01/06 11:54:59;;;;;;;4.28;1.73;;;13.30;99.90;;;;;;5009553;28;20037;-73
2023/01/06 11:58:14;;;;;;;4.28;1.90;;;13.40;99.90;;;;;;5004612;28;20034;-73
2023/01/06 12:00:51;;;;;;;3.13;1.70;;;13.30;99.90;;;;;;4999503;28;20027;-74
2023/01/06 12:03:30;;;;;;;7.60;2.50;;;13.30;99.90;;;;;;5004028;28;20034;-74
2023/01/06 12:06:04;;;;;;;7.65;2.10;;;13.30;99.90;;;;;;5006818;28;20044;-73
2023/01/06 12:08:44;;;;;;;4.28;2.17;;;13.40;99.90;;;;;;5002205;28;20042;-73
2023/01/06 12:11:15;;;;;;;5.35;2.15;;;13.40;99.90;;;;;;5010899;28;20049;-73
2023/01/06 12:13:42;;;;;;;2.67;1.80;;;13.40;99.90;;;;;;5013548;28;20025;-73
2023/01/06 12:16:21;;;;;;;5.25;1.73;;;13.40;99.90;;;;;;5009518;28;20101;-73
2023/01/06 12:18:48;;;;;;;2.97;1.83;;;13.40;99.90;;;;;;5001550;28;20030;-73
2023/01/06 12:21:30;;;;;;;6.18;1.65;;;13.40;99.90;;;;;;4999697;28;20030;-73
2023/01/06 12:24:00;;;;;;;9.20;1.65;;;13.40;99.90;;;;;;4998566;28;20510;-73
2023/01/06 12:26:27;;;;;;;5.28;1.75;;;13.30;99.90;;;;;;5004398;28;20014;-73
2023/01/06 12:28:55;;;;;;;2.13;1.42;;;13.30;99.90;;;;;;5004621;28;20062;-73
2023/01/06 12:31:33;;;;;;;1.88;1.25;;;13.30;99.90;;;;;;5000487;28;20526;-74
2023/01/06 12:34:04;;;;;;;5.07;1.40;;;13.40;99.90;;;;;;5021700;28;20108;-74
2023/01/06 12:36:57;;;;;;;3.88;1.60;;;13.50;99.90;;;;;;5007734;28;20030;-73
2023/01/06 12:39:48;;;;;;;3.33;1.70;;;13.50;99.90;;;;;;5008277;28;20029;-73
2023/01/06 12:42:32;;;;;;;3.25;1.38;;;13.60;99.90;;;;;;5005762;28;20022;-73
2023/01/06 12:45:25;;;;;;;2.30;1.38;;;13.60;99.90;;;;;;5002978;28;20521;-74
2023/01/06 12:47:56;;;;;;;2.88;1.30;;;13.60;99.90;;;;;;5005172;28;20121;-73
2023/01/06 12:50:58;;;;;;;2.45;1.38;;;13.70;99.90;;;;;;5010586;28;20026;-73
2023/01/06 12:53:35;;;;;;;1.98;1.00;;;13.70;99.90;;;;;;5004002;28;20116;-73
2023/01/06 12:56:20;;;;;;;1.00;1.00;;;13.70;99.90;;;;;;5005180;28;20049;-73
2023/01/06 12:59:19;;;;;;;3.83;1.15;;;13.70;99.90;;;;;;5002346;28;20020;-74
2023/01/06 13:02:02;;;;;;;4.00;1.10;;;13.60;99.90;;;;;;4998466;28;20022;-74
2023/01/06 13:05:00;;;;;;;1.85;1.25;;;13.60;99.90;;;;;;4998932;28;20486;-74
2023/01/06 13:07:41;;;;;;;0.90;0.90;;;13.50;99.90;;;;;;4997791;28;20489;-74
2023/01/06 13:10:31;;;;;;;2.13;1.17;;;13.50;99.90;;;;;;5004537;28;20373;-74
2023/01/06 13:13:34;;;;;;;4.80;1.40;;;13.50;99.90;;;;;;5000847;28;20034;-73
2023/01/06 13:16:09;;;;;;;2.30;1.10;;;13.40;99.90;;;;;;5003361;28;20374;-73
2023/01/06 13:18:59;;;;;;;3.78;1.77;;;13.40;99.90;;;;;;5008577;28;20569;-73